Terminal Aerodrome Forecast
Issued by NWS Louisville, KY

Home | Current Version | Previous Version | Text Only | Print | Product List | Glossary On
Versions: 1 2 3 4 5 6 7 8 9 10 11 12 13 14 15 16 17 18 19 20 21 22 23 24 25
000
FTUS43 KLMK 160900 AAB
TAFSDF
TAF AMD
KSDF 160911Z 1609/1712 21010G18KT 6SM -SHRA VCTS SCT025CB BKN070
      TEMPO 1609/1610 3SM -TSRA BKN025CB
     FM161000 24012G20KT P6SM VCSH BKN025
     FM161200 25012G22KT P6SM VCSH BKN015
     FM170100 27010KT P6SM BKN015=

USA.gov is the U.S. government's official web portal to all federal, state and local government web resources and services.